X  Chiuso Dati meteorologici dell'aviazione (METAR)        LIBA Tremiti Eliporto
Temperatura
2°C Temperatura
1°C Punto di rugiada
93% Umidità



Vento
9 KM/O
6 MPH
3 M/S
5 KTS



280°
O
Condizioni attuali

Mostly Sunny Per lo piu' sereno
Pressione 1021 (hPa) - 30.16 (inHg)
Visibilità 6 (miglio) - 10 (km)
Aeroporto
Codice-Aeroporto LIBA

Posizione: Tremiti Eliporto
Distanza: 60 (km)

Metar:
METAR LIBA 020655Z 28005KT CAVOK 02/01 Q1021

Ore: 02-02-2023 07:55 CET